Time;durP1;ratioP1;P1;durP2;ratioP2;P2;SDS_P1;SDS_P2;PMS_P1;PMS_P2;Temp;Humidity;BMP_temperature;BMP_pressure;BME280_temperature;BME280_humidity;BME280_pressure;Samples;Min_cycle;Max_cycle;Signal;HPM_P1;HPM_P2
2021/08/28 00:00:30;;;;;;;3.42;0.90;;;10.40;82.70;;;;;;4853628;29;20498;-72
2021/08/28 00:02:56;;;;;;;2.13;0.70;;;10.30;82.80;;;;;;4855821;29;20457;-65
2021/08/28 00:05:23;;;;;;;3.38;0.80;;;10.30;83.10;;;;;;4857197;29;20092;-66
2021/08/28 00:07:49;;;;;;;2.63;1.17;;;10.30;82.90;;;;;;4854645;29;20366;-66
2021/08/28 00:10:16;;;;;;;6.22;1.20;;;10.20;82.80;;;;;;4856283;29;20040;-65
2021/08/28 00:12:42;;;;;;;2.03;0.82;;;10.20;83.10;;;;;;4854406;29;20537;-65
2021/08/28 00:15:10;;;;;;;3.85;0.90;;;10.20;83.00;;;;;;4855957;29;20421;-63
2021/08/28 00:17:39;;;;;;;1.95;0.40;;;10.20;83.00;;;;;;4856812;29;20392;-64
2021/08/28 00:20:09;;;;;;;3.20;0.60;;;10.20;83.00;;;;;;4854306;29;20479;-63
2021/08/28 00:22:36;;;;;;;1.20;0.65;;;10.30;83.00;;;;;;4857219;29;20034;-63
2021/08/28 00:25:04;;;;;;;2.40;0.60;;;10.30;83.10;;;;;;4848160;29;20078;-63
2021/08/28 00:27:31;;;;;;;1.40;0.60;;;10.30;83.00;;;;;;4856829;29;20485;-67
2021/08/28 00:29:57;;;;;;;0.80;0.45;;;10.30;83.00;;;;;;4852900;29;20450;-63
2021/08/28 00:32:24;;;;;;;2.95;0.82;;;10.30;82.70;;;;;;4856334;29;20045;-63
2021/08/28 00:34:50;;;;;;;1.67;0.57;;;10.40;82.80;;;;;;4853696;29;20086;-67
2021/08/28 00:37:16;;;;;;;1.38;1.08;;;10.30;82.70;;;;;;4855227;29;20033;-65
2021/08/28 00:39:43;;;;;;;3.17;1.15;;;10.30;82.90;;;;;;4850625;29;20442;-65
2021/08/28 00:42:09;;;;;;;0.85;0.50;;;10.30;83.10;;;;;;4853513;29;20113;-62
2021/08/28 00:44:43;;;;;;;2.60;0.70;;;10.20;83.40;;;;;;4855987;29;20078;-63
2021/08/28 00:47:17;;;;;;;1.23;0.63;;;10.20;83.50;;;;;;4856279;29;20021;-63
2021/08/28 00:49:49;;;;;;;0.63;0.50;;;10.10;83.80;;;;;;4855892;29;20196;-64
2021/08/28 00:52:17;;;;;;;1.55;0.73;;;10.10;83.80;;;;;;4853422;29;20053;-64
2021/08/28 00:54:44;;;;;;;2.08;0.70;;;10.10;83.80;;;;;;4856044;29;20049;-63
2021/08/28 00:57:12;;;;;;;2.05;0.50;;;10.10;83.90;;;;;;4851776;29;20514;-68
2021/08/28 00:59:40;;;;;;;1.50;0.90;;;10.10;84.10;;;;;;4854069;29;20056;-63
2021/08/28 01:02:08;;;;;;;2.85;0.68;;;10.10;84.30;;;;;;4851688;29;20398;-63
2021/08/28 01:04:46;;;;;;;0.40;0.28;;;10.00;84.20;;;;;;4856089;29;20026;-63
2021/08/28 01:07:20;;;;;;;2.58;0.30;;;10.10;84.40;;;;;;4850332;29;20018;-63
2021/08/28 01:09:52;;;;;;;1.67;0.52;;;10.10;84.30;;;;;;4852380;29;20036;-63
2021/08/28 01:12:29;;;;;;;1.95;0.50;;;10.20;84.30;;;;;;4854924;29;20018;-63
2021/08/28 01:14:59;;;;;;;1.23;0.40;;;10.20;84.20;;;;;;4852491;29;20485;-63
2021/08/28 01:17:28;;;;;;;1.83;0.30;;;10.20;84.40;;;;;;4854664;29;20030;-63
2021/08/28 01:20:09;;;;;;;0.50;0.30;;;10.20;84.40;;;;;;4852371;29;20018;-63
2021/08/28 01:22:39;;;;;;;3.00;0.38;;;10.20;83.90;;;;;;4856378;29;20025;-63
2021/08/28 01:25:08;;;;;;;1.13;0.32;;;10.20;84.00;;;;;;4849073;29;20033;-63
2021/08/28 01:27:51;;;;;;;1.23;0.50;;;10.20;84.00;;;;;;4853173;29;20038;-63
2021/08/28 01:30:21;;;;;;;2.67;0.50;;;10.20;84.20;;;;;;4838742;29;20064;-63
2021/08/28 01:32:48;;;;;;;0.60;0.40;;;10.20;84.10;;;;;;4854562;29;20060;-63
2021/08/28 01:35:15;;;;;;;1.08;0.32;;;10.20;84.30;;;;;;4856006;29;20404;-69
2021/08/28 01:37:45;;;;;;;0.40;0.17;;;10.30;84.40;;;;;;4854670;29;20419;-63
2021/08/28 01:40:12;;;;;;;2.42;0.13;;;10.30;84.60;;;;;;4856519;29;20017;-66
2021/08/28 01:42:42;;;;;;;0.55;0.40;;;10.30;84.60;;;;;;4850469;29;20104;-63
2021/08/28 01:45:48;;;;;;;1.35;0.40;;;10.30;84.60;;;;;;4852175;29;20101;-63
2021/08/28 01:48:54;;;;;;;1.55;0.80;;;10.30;84.70;;;;;;4855024;29;20029;-63
2021/08/28 01:52:01;;;;;;;1.13;0.20;;;10.30;84.20;;;;;;4851047;29;20032;-63
2021/08/28 01:55:07;;;;;;;0.95;0.43;;;10.30;84.30;;;;;;4851267;29;20034;-67
2021/08/28 01:58:13;;;;;;;2.43;0.67;;;10.30;84.60;;;;;;4854429;29;20053;-62
2021/08/28 02:01:19;;;;;;;2.88;0.50;;;10.30;85.00;;;;;;4851668;29;20391;-66
2021/08/28 02:04:26;;;;;;;0.70;0.50;;;10.30;85.10;;;;;;4850896;29;20028;-62
2021/08/28 02:07:34;;;;;;;5.72;0.88;;;10.40;84.70;;;;;;4851999;29;20355;-62
2021/08/28 02:10:24;;;;;;;0.95;0.80;;;10.30;84.60;;;;;;4858010;29;20033;-63
2021/08/28 02:12:55;;;;;;;5.57;1.23;;;10.30;84.70;;;;;;4855357;29;20078;-63
2021/08/28 02:15:38;;;;;;;4.18;1.73;;;10.30;84.60;;;;;;4854297;29;20440;-63
2021/08/28 02:18:27;;;;;;;3.38;1.77;;;10.30;84.40;;;;;;4858344;29;20520;-63
2021/08/28 02:20:57;;;;;;;3.08;1.30;;;10.30;84.10;;;;;;4856163;29;20030;-63
2021/08/28 02:23:33;;;;;;;2.60;1.38;;;10.30;84.40;;;;;;4852804;29;20041;-67
2021/08/28 02:26:08;;;;;;;5.85;2.00;;;10.30;84.40;;;;;;4856329;29;20388;-64
2021/08/28 02:28:37;;;;;;;;;;;10.30;85.00;;;;;;4860098;29;20110;-64
2021/08/28 02:31:05;;;;;;;3.55;1.10;;;10.30;85.50;;;;;;4857826;29;20300;-69
2021/08/28 02:33:34;;;;;;;4.03;1.70;;;10.30;85.90;;;;;;4857711;29;20645;-63
2021/08/28 02:36:01;;;;;;;5.35;2.65;;;10.30;86.20;;;;;;4859005;29;20041;-63
2021/08/28 02:38:29;;;;;;;4.78;3.58;;;10.20;86.20;;;;;;4857141;29;20040;-68
2021/08/28 02:40:58;;;;;;;8.55;4.80;;;10.30;86.00;;;;;;4858546;29;20034;-63
2021/08/28 02:43:26;;;;;;;8.57;4.38;;;10.20;86.60;;;;;;4850585;29;20025;-63
2021/08/28 02:45:54;;;;;;;13.75;4.75;;;10.30;86.30;;;;;;4858682;29;20037;-63
2021/08/28 02:48:22;;;;;;;4.78;3.15;;;10.20;86.40;;;;;;4856766;29;20035;-63
2021/08/28 02:50:51;;;;;;;5.18;3.00;;;10.20;86.70;;;;;;4858088;29;20041;-68
2021/08/28 02:53:23;;;;;;;5.05;2.55;;;10.20;86.70;;;;;;4859201;29;20119;-66
2021/08/28 02:55:52;;;;;;;3.25;1.35;;;10.20;86.50;;;;;;4853746;29;20041;-63
2021/08/28 02:58:22;;;;;;;4.47;1.90;;;10.20;87.20;;;;;;4868540;29;20458;-62
2021/08/28 03:00:49;;;;;;;2.88;1.38;;;10.20;86.50;;;;;;4874036;29;20067;-63
2021/08/28 03:03:17;;;;;;;4.90;0.80;;;10.10;86.50;;;;;;4873234;29;20389;-63
2021/08/28 03:05:47;;;;;;;1.65;0.68;;;10.20;86.60;;;;;;4877668;29;20025;-63
2021/08/28 03:08:16;;;;;;;1.35;0.70;;;10.10;86.10;;;;;;4873875;29;20021;-63
2021/08/28 03:10:50;;;;;;;2.05;0.45;;;10.10;86.30;;;;;;4875623;29;20095;-66
2021/08/28 03:13:17;;;;;;;2.50;0.40;;;10.10;86.30;;;;;;4874794;29;20024;-63
2021/08/28 03:15:45;;;;;;;1.90;0.50;;;10.10;86.30;;;;;;4876124;29;20033;-63
2021/08/28 03:18:14;;;;;;;2.15;0.57;;;10.10;86.30;;;;;;4869977;29;20051;-67
2021/08/28 03:20:45;;;;;;;1.00;0.60;;;10.10;86.30;;;;;;4874442;29;20021;-62
2021/08/28 03:23:15;;;;;;;1.58;0.88;;;10.10;86.50;;;;;;4868961;29;20104;-65
2021/08/28 03:25:44;;;;;;;3.78;0.80;;;10.20;86.60;;;;;;4875856;29;20056;-65
2021/08/28 03:28:12;;;;;;;6.35;1.23;;;10.20;86.70;;;;;;4874086;29;20048;-63
2021/08/28 03:30:44;;;;;;;0.70;0.70;;;10.20;86.50;;;;;;4873899;29;20484;-64
2021/08/28 03:33:15;;;;;;;4.78;1.52;;;10.20;86.60;;;;;;4877021;29;20029;-63
2021/08/28 03:35:44;;;;;;;1.50;0.60;;;10.10;86.80;;;;;;4876364;29;20072;-64
2021/08/28 03:38:11;;;;;;;2.78;1.00;;;10.20;87.00;;;;;;4875906;29;20025;-62
2021/08/28 03:40:38;;;;;;;3.03;0.73;;;10.20;87.20;;;;;;4876397;29;20040;-64
2021/08/28 03:43:06;;;;;;;3.13;1.45;;;10.20;87.40;;;;;;4869634;29;20121;-63
2021/08/28 03:45:32;;;;;;;1.67;0.80;;;10.10;87.10;;;;;;4876923;29;20088;-66
2021/08/28 03:48:00;;;;;;;1.55;0.93;;;10.10;87.20;;;;;;4873122;29;20049;-64
2021/08/28 03:50:27;;;;;;;3.17;1.27;;;10.10;87.70;;;;;;4872524;29;20439;-62
2021/08/28 03:52:53;;;;;;;5.15;0.50;;;10.00;87.80;;;;;;4875280;29;20053;-70
2021/08/28 03:55:20;;;;;;;1.73;0.82;;;10.00;87.90;;;;;;4875846;29;20072;-75
2021/08/28 03:57:46;;;;;;;2.50;0.40;;;10.00;87.80;;;;;;4875033;29;20060;-66
2021/08/28 04:00:52;;;;;;;0.80;0.60;;;10.00;87.70;;;;;;4869887;29;20037;-63
2021/08/28 04:03:59;;;;;;;3.20;0.57;;;10.00;87.50;;;;;;4871917;29;20029;-62
2021/08/28 04:07:05;;;;;;;1.30;0.85;;;10.00;87.00;;;;;;4874016;29;20292;-63
2021/08/28 04:10:11;;;;;;;4.28;1.23;;;10.00;87.20;;;;;;4872859;29;20048;-63
2021/08/28 04:13:17;;;;;;;2.07;0.80;;;10.10;87.00;;;;;;4874287;29;20568;-65
2021/08/28 04:15:43;;;;;;;2.63;0.83;;;10.10;87.10;;;;;;4873668;29;20291;-67
2021/08/28 04:18:10;;;;;;;2.13;0.88;;;10.10;86.80;;;;;;4873500;29;20284;-62
2021/08/28 04:20:36;;;;;;;6.15;1.10;;;10.20;86.90;;;;;;4872755;29;20037;-62
2021/08/28 04:23:03;;;;;;;3.50;1.23;;;10.20;86.90;;;;;;4871831;29;20058;-61
2021/08/28 04:25:29;;;;;;;5.05;0.80;;;10.20;86.60;;;;;;4874851;29;20081;-62
2021/08/28 04:27:59;;;;;;;1.60;0.88;;;10.30;86.50;;;;;;4871412;29;20029;-62
2021/08/28 04:30:27;;;;;;;1.90;0.80;;;10.30;86.00;;;;;;4868669;29;20035;-65
2021/08/28 04:32:53;;;;;;;2.45;0.93;;;10.30;85.80;;;;;;4875525;29;20032;-62
2021/08/28 04:35:20;;;;;;;3.10;1.50;;;10.30;85.30;;;;;;4874628;29;20039;-62
2021/08/28 04:37:47;;;;;;;3.70;1.27;;;10.30;85.20;;;;;;4865726;29;20032;-68
2021/08/28 04:40:14;;;;;;;1.58;0.90;;;10.30;84.80;;;;;;4870967;29;20425;-62
2021/08/28 04:42:40;;;;;;;2.17;1.05;;;10.30;84.60;;;;;;4874798;29;20473;-60
2021/08/28 04:45:08;;;;;;;45.20;34.97;;;10.30;85.10;;;;;;4872781;29;20111;-62
2021/08/28 04:47:34;;;;;;;16.00;9.73;;;10.20;85.10;;;;;;4872910;29;20092;-62
2021/08/28 04:50:01;;;;;;;3.05;1.33;;;10.20;84.80;;;;;;4873398;29;20025;-63
2021/08/28 04:52:28;;;;;;;3.20;1.08;;;10.20;84.90;;;;;;4867960;29;20025;-64
2021/08/28 04:55:34;;;;;;;3.15;1.00;;;10.20;85.00;;;;;;4871787;29;20067;-63
2021/08/28 04:58:40;;;;;;;1.90;0.80;;;10.10;85.30;;;;;;4870741;29;21202;-66
2021/08/28 05:01:46;;;;;;;1.38;1.25;;;10.00;85.20;;;;;;4869892;29;20078;-68
2021/08/28 05:04:52;;;;;;;2.00;1.20;;;10.00;85.20;;;;;;4870100;29;20025;-71
2021/08/28 05:07:58;;;;;;;9.70;1.60;;;9.90;85.20;;;;;;4872362;29;20028;-62
2021/08/28 05:10:25;;;;;;;2.13;1.40;;;9.80;85.30;;;;;;4871272;29;20276;-68
2021/08/28 05:12:51;;;;;;;1.58;1.10;;;9.70;85.70;;;;;;4870287;29;20497;-66
2021/08/28 05:15:19;;;;;;;1.92;1.13;;;9.70;86.00;;;;;;4872606;29;20041;-62
2021/08/28 05:17:46;;;;;;;3.53;2.08;;;9.70;86.50;;;;;;4870939;29;20417;-70
2021/08/28 05:20:15;;;;;;;4.53;2.50;;;9.60;86.70;;;;;;4870567;29;20044;-64
2021/08/28 05:22:42;;;;;;;21.38;14.27;;;9.60;87.20;;;;;;4867541;29;20783;-65
2021/08/28 05:25:10;;;;;;;114.78;77.60;;;9.60;87.00;;;;;;4867884;29;20025;-69
2021/08/28 05:27:39;;;;;;;21.23;12.25;;;9.60;86.80;;;;;;4848521;29;20037;-64
2021/08/28 05:30:07;;;;;;;3.72;2.13;;;9.60;86.60;;;;;;4849493;29;20048;-66
2021/08/28 05:32:34;;;;;;;3.58;1.05;;;9.60;86.20;;;;;;4869621;29;20032;-68
2021/08/28 05:35:00;;;;;;;2.13;0.90;;;9.50;86.20;;;;;;4869994;29;20604;-68
2021/08/28 05:37:27;;;;;;;4.40;1.00;;;9.50;86.50;;;;;;4870008;29;20029;-62
2021/08/28 05:39:53;;;;;;;2.55;0.93;;;9.50;86.70;;;;;;4866522;29;20047;-64
2021/08/28 05:42:20;;;;;;;1.50;0.90;;;9.50;86.70;;;;;;4871224;29;20040;-65
2021/08/28 05:44:46;;;;;;;1.75;0.60;;;9.50;86.60;;;;;;4869175;29;20052;-64
2021/08/28 05:47:13;;;;;;;1.20;0.50;;;9.50;86.70;;;;;;4871722;29;20037;-65
2021/08/28 05:49:39;;;;;;;0.70;0.70;;;9.50;86.60;;;;;;4871186;29;20057;-62
2021/08/28 05:52:06;;;;;;;1.00;0.88;;;9.50;86.20;;;;;;4872744;29;20049;-62
2021/08/28 05:54:32;;;;;;;1.05;0.40;;;9.50;86.40;;;;;;4874382;29;20045;-63
2021/08/28 05:56:59;;;;;;;3.00;0.50;;;9.50;86.60;;;;;;4871547;29;20475;-63
2021/08/28 05:59:25;;;;;;;3.45;0.40;;;9.50;86.70;;;;;;4870968;29;20068;-65
2021/08/28 06:01:53;;;;;;;2.00;0.50;;;9.50;86.30;;;;;;4871037;29;20025;-63
2021/08/28 06:04:20;;;;;;;1.75;1.20;;;9.50;85.90;;;;;;4874243;29;20029;-63
2021/08/28 06:06:47;;;;;;;9.68;7.57;;;9.60;86.30;;;;;;4871528;29;20065;-64
2021/08/28 06:09:13;;;;;;;32.00;23.50;;;9.60;86.40;;;;;;4872811;29;20057;-63
2021/08/28 06:11:40;;;;;;;4.88;3.58;;;9.60;86.50;;;;;;4875594;29;20036;-64
2021/08/28 06:14:06;;;;;;;2.25;1.23;;;9.70;86.60;;;;;;4873653;29;20113;-61
2021/08/28 06:16:33;;;;;;;2.75;1.20;;;9.70;86.10;;;;;;4874092;29;20033;-65
2021/08/28 06:18:59;;;;;;;11.07;4.90;;;9.80;85.80;;;;;;4870179;29;20030;-66
2021/08/28 06:21:26;;;;;;;15.20;10.45;;;9.80;85.40;;;;;;4868571;29;20020;-64
2021/08/28 06:23:53;;;;;;;64.20;30.90;;;9.90;85.30;;;;;;4871753;29;20489;-68
2021/08/28 06:26:20;;;;;;;28.65;16.35;;;10.00;85.30;;;;;;4871507;29;20020;-67
2021/08/28 06:28:46;;;;;;;9.48;5.22;;;10.10;85.50;;;;;;4869829;29;20021;-68
2021/08/28 06:31:13;;;;;;;1.75;0.98;;;10.10;85.40;;;;;;4871106;29;20017;-67
2021/08/28 06:33:39;;;;;;;0.93;0.60;;;10.20;85.30;;;;;;4872966;29;20488;-65
2021/08/28 06:36:07;;;;;;;1.42;1.10;;;10.30;85.10;;;;;;4866006;29;20049;-66
2021/08/28 06:38:33;;;;;;;1.50;0.68;;;10.30;85.10;;;;;;4872432;29;20112;-65
2021/08/28 06:41:02;;;;;;;10.40;7.55;;;10.40;85.10;;;;;;4870978;29;20092;-66
2021/08/28 06:43:29;;;;;;;12.48;9.20;;;10.40;85.20;;;;;;4869019;29;20039;-66
2021/08/28 06:45:56;;;;;;;8.05;3.85;;;10.50;85.70;;;;;;4866994;29;20029;-66
2021/08/28 06:48:24;;;;;;;3.05;1.55;;;10.50;86.80;;;;;;4853644;29;20078;-65
2021/08/28 06:50:50;;;;;;;1.65;0.93;;;10.50;86.80;;;;;;4870962;29;20039;-69
2021/08/28 06:53:17;;;;;;;2.88;0.70;;;10.50;87.00;;;;;;4875904;29;20378;-68
2021/08/28 06:55:44;;;;;;;0.85;0.43;;;10.50;87.10;;;;;;4875618;29;20441;-66
2021/08/28 06:58:10;;;;;;;6.15;3.72;;;10.60;87.30;;;;;;4860041;29;20081;-64
2021/08/28 07:00:37;;;;;;;111.68;72.50;;;10.60;87.40;;;;;;4856823;29;20037;-63
2021/08/28 07:03:03;;;;;;;15.75;10.70;;;10.70;87.50;;;;;;4856501;29;20054;-69
2021/08/28 07:05:30;;;;;;;3.13;2.17;;;10.70;87.10;;;;;;4855597;29;20610;-65
2021/08/28 07:07:56;;;;;;;4.13;1.45;;;10.70;86.90;;;;;;4854300;29;20030;-65
2021/08/28 07:10:23;;;;;;;1.40;0.55;;;10.80;87.00;;;;;;4855082;29;20065;-65
2021/08/28 07:12:49;;;;;;;2.78;0.70;;;10.90;87.00;;;;;;4858516;29;20066;-66
2021/08/28 07:15:17;;;;;;;0.93;0.50;;;10.90;87.00;;;;;;4857388;29;20068;-64
2021/08/28 07:17:44;;;;;;;1.70;1.02;;;10.90;87.00;;;;;;4853705;29;20032;-65
2021/08/28 07:20:11;;;;;;;3.33;1.58;;;11.00;86.90;;;;;;4857010;29;20037;-66
2021/08/28 07:22:37;;;;;;;5.15;1.30;;;11.00;87.00;;;;;;4857901;29;20021;-65
2021/08/28 07:25:05;;;;;;;1.38;0.70;;;11.10;87.00;;;;;;4859073;29;20534;-64
2021/08/28 07:27:32;;;;;;;1.42;0.50;;;11.10;87.00;;;;;;4857075;29;20022;-63
2021/08/28 07:29:58;;;;;;;3.47;1.60;;;11.10;86.80;;;;;;4855613;29;20025;-64
2021/08/28 07:32:26;;;;;;;78.55;54.42;;;11.20;87.40;;;;;;4854098;29;20036;-69
2021/08/28 07:34:55;;;;;;;48.20;33.80;;;11.30;87.00;;;;;;4856378;29;20041;-64
2021/08/28 07:37:22;;;;;;;29.65;18.75;;;11.40;86.80;;;;;;4853463;29;20030;-61
2021/08/28 07:39:49;;;;;;;40.08;19.67;;;11.40;86.40;;;;;;4850123;29;20014;-62
2021/08/28 07:42:16;;;;;;;6.32;2.78;;;11.40;85.70;;;;;;4857236;29;20037;-64
2021/08/28 07:44:42;;;;;;;5.05;2.35;;;11.50;85.50;;;;;;4857207;29;20041;-63
2021/08/28 07:47:09;;;;;;;3.95;1.10;;;11.50;85.20;;;;;;4857186;29;20032;-66
2021/08/28 07:49:35;;;;;;;3.17;0.95;;;11.60;85.00;;;;;;4854617;29;20137;-64
2021/08/28 07:52:02;;;;;;;1.80;0.80;;;11.60;85.00;;;;;;4853932;29;20041;-64
2021/08/28 07:54:28;;;;;;;2.42;0.98;;;11.60;84.80;;;;;;4856576;29;20046;-64
2021/08/28 07:56:55;;;;;;;2.38;0.68;;;11.70;84.70;;;;;;4854875;29;20080;-69
2021/08/28 07:59:21;;;;;;;2.53;0.57;;;11.70;84.70;;;;;;4871641;29;20028;-64
2021/08/28 08:01:48;;;;;;;0.63;0.63;;;11.70;84.80;;;;;;4874512;29;20096;-66
2021/08/28 08:04:15;;;;;;;3.88;1.15;;;11.80;84.80;;;;;;4869905;29;20040;-66
2021/08/28 08:06:41;;;;;;;2.05;0.60;;;11.80;84.60;;;;;;4874361;29;20048;-63
2021/08/28 08:09:07;;;;;;;3.67;0.95;;;12.00;84.60;;;;;;4875634;29;20021;-65
2021/08/28 08:11:34;;;;;;;5.00;1.38;;;12.00;83.30;;;;;;4855899;29;20119;-67
2021/08/28 08:14:00;;;;;;;0.90;0.60;;;12.10;81.60;;;;;;4874036;29;20027;-63
2021/08/28 08:16:27;;;;;;;4.13;1.25;;;12.00;78.10;;;;;;4875678;29;20029;-65
2021/08/28 08:18:53;;;;;;;3.50;0.57;;;12.10;77.50;;;;;;4869485;29;20029;-66
2021/08/28 08:21:21;;;;;;;1.33;0.60;;;12.00;76.70;;;;;;4875894;29;20025;-67
2021/08/28 08:23:47;;;;;;;2.88;0.77;;;12.10;78.30;;;;;;4873143;29;20028;-65
2021/08/28 08:26:14;;;;;;;3.88;0.93;;;12.00;79.90;;;;;;4864758;29;20054;-65
2021/08/28 08:28:41;;;;;;;4.70;1.20;;;12.00;81.10;;;;;;4868997;29;20329;-63
2021/08/28 08:31:07;;;;;;;6.75;2.88;;;12.00;82.30;;;;;;4875649;29;20017;-62
2021/08/28 08:33:34;;;;;;;3.63;1.95;;;12.00;82.90;;;;;;4874308;29;20048;-62
2021/08/28 08:36:00;;;;;;;5.65;1.40;;;12.00;83.80;;;;;;4864217;29;20977;-66
2021/08/28 08:38:27;;;;;;;1.73;1.38;;;12.00;83.70;;;;;;4873793;29;20025;-65
2021/08/28 08:40:54;;;;;;;1.55;0.90;;;12.00;83.90;;;;;;4869695;29;20026;-66
2021/08/28 08:43:21;;;;;;;2.50;1.20;;;12.00;83.60;;;;;;4874819;29;20453;-67
2021/08/28 08:45:49;;;;;;;3.35;1.05;;;12.00;83.90;;;;;;4872839;29;20354;-67
2021/08/28 08:48:16;;;;;;;1.35;0.65;;;12.00;84.10;;;;;;4875992;29;20017;-63
2021/08/28 08:50:45;;;;;;;5.68;1.70;;;12.00;84.30;;;;;;4870395;29;20100;-65
2021/08/28 08:53:15;;;;;;;4.32;1.58;;;12.10;84.40;;;;;;4869371;29;20629;-70
2021/08/28 08:55:42;;;;;;;1.40;0.80;;;12.20;84.10;;;;;;4870702;29;20037;-66
2021/08/28 08:58:09;;;;;;;4.00;0.90;;;12.30;83.90;;;;;;4874266;29;20589;-64
2021/08/28 09:00:36;;;;;;;4.13;1.80;;;12.40;83.80;;;;;;4869612;29;20475;-67
2021/08/28 09:03:03;;;;;;;3.10;1.33;;;12.50;83.60;;;;;;4865854;29;20859;-69
2021/08/28 09:05:29;;;;;;;1.45;0.70;;;12.50;83.60;;;;;;4872665;29;20036;-64
2021/08/28 09:07:56;;;;;;;2.88;0.63;;;12.70;83.50;;;;;;4874910;29;20041;-65
2021/08/28 09:10:22;;;;;;;1.52;0.70;;;12.70;83.20;;;;;;4871639;29;20025;-65
2021/08/28 09:12:49;;;;;;;2.85;0.80;;;12.80;82.60;;;;;;4863746;29;20088;-65
2021/08/28 09:15:16;;;;;;;1.92;0.70;;;12.90;82.10;;;;;;4873623;29;20634;-67
2021/08/28 09:17:44;;;;;;;4.82;1.15;;;13.00;81.40;;;;;;4875689;29;20040;-68
2021/08/28 09:20:23;;;;;;;2.80;1.02;;;13.10;80.60;;;;;;4855551;29;20033;-69
2021/08/28 09:23:01;;;;;;;3.40;0.88;;;13.20;80.30;;;;;;4868610;29;20032;-66
2021/08/28 09:25:28;;;;;;;3.78;0.98;;;13.30;80.10;;;;;;4873192;29;20024;-64
2021/08/28 09:27:54;;;;;;;6.00;1.75;;;13.40;79.40;;;;;;4874062;29;20029;-65
2021/08/28 09:30:27;;;;;;;2.08;0.93;;;13.50;78.80;;;;;;4870875;29;20021;-65
2021/08/28 09:32:58;;;;;;;3.70;1.05;;;13.60;78.10;;;;;;4872081;29;20033;-65
2021/08/28 09:35:28;;;;;;;6.97;1.00;;;13.60;77.50;;;;;;4872978;29;20040;-65
2021/08/28 09:38:06;;;;;;;6.70;1.30;;;13.70;76.30;;;;;;4873051;29;20108;-66
2021/08/28 09:40:41;;;;;;;4.47;1.02;;;13.70;75.50;;;;;;4873460;29;20161;-68
2021/08/28 09:43:19;;;;;;;2.28;1.08;;;13.70;75.10;;;;;;4872246;29;20028;-67
2021/08/28 09:45:47;;;;;;;2.08;0.65;;;13.70;75.30;;;;;;4856036;29;20037;-64
2021/08/28 09:48:17;;;;;;;4.10;1.05;;;13.80;75.40;;;;;;4873670;29;20416;-64
2021/08/28 09:50:49;;;;;;;3.53;1.05;;;13.90;74.60;;;;;;4867748;29;20036;-65
2021/08/28 09:53:23;;;;;;;5.72;1.77;;;13.90;73.40;;;;;;4873695;29;20084;-67
2021/08/28 09:56:00;;;;;;;3.28;0.90;;;14.00;72.70;;;;;;4873774;29;20040;-66
2021/08/28 09:58:32;;;;;;;3.95;1.30;;;14.10;72.00;;;;;;4868357;29;20055;-65
2021/08/28 10:01:05;;;;;;;5.68;1.10;;;14.20;71.50;;;;;;4868300;29;20108;-68
2021/08/28 10:03:33;;;;;;;3.58;1.40;;;14.40;70.90;;;;;;4850252;29;20039;-66
2021/08/28 10:06:01;;;;;;;4.15;2.42;;;14.50;68.90;;;;;;4874041;29;20032;-67
2021/08/28 10:08:31;;;;;;;3.22;1.15;;;14.60;68.70;;;;;;4872448;29;20060;-70
2021/08/28 10:11:00;;;;;;;4.80;1.10;;;14.70;69.40;;;;;;4869405;29;20025;-66
2021/08/28 10:13:27;;;;;;;7.40;2.10;;;14.90;69.50;;;;;;4868322;29;20742;-69
2021/08/28 10:15:56;;;;;;;4.85;1.33;;;15.00;66.70;;;;;;4871665;29;20037;-68
2021/08/28 10:18:24;;;;;;;7.13;1.42;;;15.10;65.70;;;;;;4871080;29;20500;-68
2021/08/28 10:20:52;;;;;;;4.82;1.38;;;15.10;64.00;;;;;;4872763;29;20119;-69
2021/08/28 10:23:21;;;;;;;4.40;1.30;;;15.20;62.00;;;;;;4866704;29;20025;-68
2021/08/28 10:25:50;;;;;;;8.45;1.65;;;15.30;63.10;;;;;;4868135;29;20912;-66
2021/08/28 10:28:18;;;;;;;3.17;1.17;;;15.40;64.10;;;;;;4876617;29;20081;-69
2021/08/28 10:30:46;;;;;;;4.50;1.48;;;15.50;63.10;;;;;;4853032;29;20029;-66
2021/08/28 10:33:13;;;;;;;4.75;1.70;;;15.50;61.60;;;;;;4875657;29;20028;-66
2021/08/28 10:35:39;;;;;;;6.40;2.80;;;15.50;61.60;;;;;;4860837;29;20097;-69
2021/08/28 10:38:07;;;;;;;7.70;2.15;;;15.50;61.70;;;;;;4859661;29;20115;-68
2021/08/28 10:40:34;;;;;;;3.95;1.48;;;15.40;61.80;;;;;;4865746;29;20029;-64
2021/08/28 10:43:08;;;;;;;2.38;1.45;;;15.30;59.10;;;;;;4877121;29;20040;-65
2021/08/28 10:45:37;;;;;;;3.63;2.00;;;15.00;56.00;;;;;;4875297;29;20018;-63
2021/08/28 10:48:06;;;;;;;6.25;2.30;;;14.90;57.20;;;;;;4874935;29;20100;-68
2021/08/28 10:50:36;;;;;;;24.25;14.07;;;14.80;59.30;;;;;;4871729;29;20050;-67
2021/08/28 10:53:04;;;;;;;9.50;4.05;;;14.70;60.30;;;;;;4876814;29;20032;-66
2021/08/28 10:55:46;;;;;;;8.65;4.00;;;14.60;61.00;;;;;;4870513;29;20371;-66
2021/08/28 10:58:16;;;;;;;17.27;7.15;;;14.40;62.30;;;;;;4876976;29;20482;-71
2021/08/28 11:00:46;;;;;;;14.20;7.60;;;14.20;66.30;;;;;;4877190;29;20032;-67
2021/08/28 11:03:26;;;;;;;19.88;3.08;;;14.10;67.00;;;;;;4873128;29;20013;-60
2021/08/28 11:06:29;;;;;;;30.52;24.65;;;13.90;67.50;;;;;;4875441;29;20065;-60
2021/08/28 11:08:59;;;;;;;50.53;35.17;;;13.90;67.10;;;;;;4835226;29;20116;-61
2021/08/28 11:11:32;;;;;;;16.35;10.95;;;13.90;65.80;;;;;;4859146;29;20107;-61
2021/08/28 11:14:01;;;;;;;9.75;5.15;;;13.80;66.50;;;;;;4875805;29;20105;-66
2021/08/28 11:16:42;;;;;;;9.45;3.80;;;13.80;67.60;;;;;;4873973;29;20513;-62
2021/08/28 11:19:31;;;;;;;8.55;2.92;;;13.80;66.90;;;;;;4875016;29;20031;-64
2021/08/28 11:21:57;;;;;;;5.60;2.10;;;13.80;66.90;;;;;;4864129;29;20126;-68
2021/08/28 11:24:26;;;;;;;9.00;1.65;;;13.90;67.50;;;;;;4871078;29;20041;-65
2021/08/28 11:27:05;;;;;;;9.15;2.40;;;14.10;67.10;;;;;;4872359;29;20054;-63
2021/08/28 11:29:44;;;;;;;9.63;3.42;;;14.20;64.90;;;;;;4872968;29;20635;-62
2021/08/28 11:32:20;;;;;;;6.47;2.30;;;14.40;64.00;;;;;;4873896;29;20027;-63
2021/08/28 11:34:52;;;;;;;5.07;2.92;;;14.70;64.60;;;;;;4869472;29;20037;-62
2021/08/28 11:37:31;;;;;;;7.32;2.40;;;14.90;64.90;;;;;;4872228;29;20031;-65
2021/08/28 11:40:00;;;;;;;6.50;2.00;;;15.10;65.50;;;;;;4872648;29;20032;-62
2021/08/28 11:42:32;;;;;;;7.65;2.55;;;15.20;64.20;;;;;;4873443;29;20044;-62
2021/08/28 11:44:59;;;;;;;8.43;2.55;;;15.20;63.30;;;;;;4874465;29;20526;-62
2021/08/28 11:47:28;;;;;;;7.50;2.53;;;15.20;62.60;;;;;;4871204;29;20497;-72
2021/08/28 11:49:57;;;;;;;10.27;2.80;;;15.10;62.40;;;;;;4873723;29;20032;-61
2021/08/28 11:52:25;;;;;;;6.03;2.85;;;15.00;62.40;;;;;;4874738;29;20028;-62
2021/08/28 11:54:51;;;;;;;7.60;2.05;;;15.00;62.30;;;;;;4870605;29;20105;-74
2021/08/28 11:57:23;;;;;;;11.68;3.78;;;14.90;60.80;;;;;;4875008;29;20076;-79
2021/08/28 11:59:50;;;;;;;9.98;3.40;;;14.70;61.20;;;;;;4874464;29;20032;-73
2021/08/28 12:02:22;;;;;;;14.15;4.05;;;14.70;62.10;;;;;;4874321;29;20556;-71
2021/08/28 12:04:49;;;;;;;7.35;3.58;;;14.40;61.80;;;;;;4873462;29;20112;-70
2021/08/28 12:07:35;;;;;;;12.18;2.80;;;14.40;62.50;;;;;;4872671;29;20120;-67
2021/08/28 12:10:29;;;;;;;9.27;3.15;;;14.60;62.80;;;;;;4874952;29;20029;-64
2021/08/28 12:13:06;;;;;;;11.90;2.10;;;14.90;62.60;;;;;;4859830;29;20045;-62
2021/08/28 12:15:41;;;;;;;9.48;3.47;;;15.20;60.50;;;;;;4870780;29;20091;-71
2021/08/28 12:18:11;;;;;;;9.82;2.95;;;15.30;60.90;;;;;;4870634;29;20037;-63
2021/08/28 12:20:42;;;;;;;8.18;3.25;;;15.30;60.70;;;;;;4866472;29;20033;-62
2021/08/28 12:24:06;;;;;;;5.90;2.03;;;15.20;60.10;;;;;;4868168;29;20574;-72
2021/08/28 12:26:34;;;;;;;8.65;2.65;;;15.10;59.80;;;;;;4872127;29;20040;-71
2021/08/28 12:29:03;;;;;;;7.43;3.38;;;15.00;60.50;;;;;;4869731;29;20022;-63
2021/08/28 12:34:48;;;;;;;8.68;2.92;;;14.80;61.60;;;;;;4846460;29;20062;-70
2021/08/28 12:37:58;;;;;;;17.80;8.23;;;14.50;61.30;;;;;;4853185;29;20056;-69
2021/08/28 12:40:26;;;;;;;12.10;4.63;;;14.40;62.50;;;;;;4853316;29;20048;-70
2021/08/28 12:42:54;;;;;;;10.32;3.42;;;14.30;63.20;;;;;;4834168;29;20035;-75
2021/08/28 12:45:21;;;;;;;7.70;3.25;;;14.20;63.50;;;;;;4857595;29;20480;-70
2021/08/28 12:47:48;;;;;;;12.32;3.28;;;14.20;62.10;;;;;;4854591;29;20048;-68
2021/08/28 12:50:18;;;;;;;6.07;2.65;;;14.20;62.40;;;;;;4855483;29;20025;-66
2021/08/28 12:52:47;;;;;;;5.05;1.60;;;14.30;62.60;;;;;;4854766;29;20129;-75
2021/08/28 12:55:26;;;;;;;8.48;2.15;;;14.40;62.80;;;;;;4853896;29;20037;-69
2021/08/28 12:57:57;;;;;;;17.90;9.98;;;14.40;62.10;;;;;;4854636;29;20033;-75
2021/08/28 13:00:24;;;;;;;9.27;2.30;;;14.40;61.80;;;;;;4858082;29;20598;-74
2021/08/28 13:02:51;;;;;;;10.07;2.92;;;14.40;61.20;;;;;;4850596;29;20087;-70
2021/08/28 13:05:29;;;;;;;5.45;2.30;;;14.50;60.60;;;;;;4859109;29;20043;-68
2021/08/28 13:08:02;;;;;;;8.20;2.38;;;14.60;59.80;;;;;;4857897;29;20025;-68
2021/08/28 13:10:30;;;;;;;8.68;3.22;;;14.70;57.60;;;;;;4856766;29;20492;-69